createdAt,value
2023-02-19T00:00:29.669Z,74.95
2023-02-19T00:02:56.771Z,74.44
2023-02-19T00:05:23.976Z,72.75
2023-02-19T00:07:50.672Z,73.22
2023-02-19T00:10:17.813Z,73.29
2023-02-19T00:12:45.073Z,73.28
2023-02-19T00:15:11.763Z,73.27
2023-02-19T00:17:38.846Z,73.91
2023-02-19T00:20:05.817Z,72.59
2023-02-19T00:22:32.578Z,77.17
2023-02-19T00:24:59.292Z,76.79
2023-02-19T00:27:25.987Z,76.78
2023-02-19T00:29:53.154Z,76.32
2023-02-19T00:32:19.851Z,78.23
2023-02-19T00:34:46.542Z,77.20
2023-02-19T00:37:13.229Z,75.51
2023-02-19T00:39:39.952Z,76.77
2023-02-19T00:42:07.235Z,76.33
2023-02-19T00:44:34.236Z,77.04
2023-02-19T00:47:00.930Z,77.52
2023-02-19T00:49:29.494Z,78.33
2023-02-19T00:51:56.214Z,78.70
2023-02-19T00:54:23.047Z,78.93
2023-02-19T00:56:49.902Z,78.26
2023-02-19T00:59:16.651Z,78.41
2023-02-19T01:01:43.668Z,79.07
2023-02-19T01:04:10.430Z,77.08
2023-02-19T01:06:37.549Z,76.23
2023-02-19T01:09:05.258Z,75.83
2023-02-19T01:11:32.341Z,76.64
2023-02-19T01:13:59.748Z,77.94
2023-02-19T01:16:26.826Z,78.14
2023-02-19T01:18:53.880Z,78.26
2023-02-19T01:21:22.397Z,77.95
2023-02-19T01:23:52.004Z,79.37
2023-02-19T01:26:40.444Z,80.98
2023-02-19T01:29:07.164Z,80.31
2023-02-19T01:31:34.387Z,78.49
2023-02-19T01:34:03.027Z,81.02
2023-02-19T01:36:30.677Z,81.06
2023-02-19T01:38:59.762Z,82.48
2023-02-19T01:41:26.503Z,83.12
2023-02-19T01:44:00.574Z,82.45
2023-02-19T01:46:32.621Z,83.35
2023-02-19T01:49:02.609Z,83.18
2023-02-19T01:51:29.366Z,84.28
2023-02-19T01:53:57.299Z,83.69
2023-02-19T01:56:24.494Z,83.30
2023-02-19T01:58:53.468Z,83.22
2023-02-19T02:01:20.236Z,83.89
2023-02-19T02:03:47.302Z,83.98
2023-02-19T02:06:22.021Z,83.73
2023-02-19T02:08:51.756Z,84.25
2023-02-19T02:11:18.822Z,83.88
2023-02-19T02:13:48.573Z,83.61
2023-02-19T02:16:42.126Z,83.95
2023-02-19T02:19:21.079Z,83.09
2023-02-19T02:22:01.697Z,82.59
2023-02-19T02:25:19.541Z,83.42
2023-02-19T02:28:14.080Z,83.66
2023-02-19T02:30:52.515Z,83.78
2023-02-19T02:33:42.266Z,83.93
2023-02-19T02:36:13.163Z,83.54
2023-02-19T02:38:41.885Z,83.79
2023-02-19T02:41:09.117Z,83.45
2023-02-19T02:43:37.538Z,84.29
2023-02-19T02:46:04.279Z,84.93
2023-02-19T02:48:49.067Z,86.09
2023-02-19T02:51:33.580Z,85.20
2023-02-19T02:54:15.070Z,85.38
2023-02-19T02:56:41.861Z,85.50
2023-02-19T02:59:09.861Z,85.37
2023-02-19T03:02:04.444Z,85.59
2023-02-19T03:04:53.914Z,85.09
2023-02-19T03:07:20.638Z,85.30
2023-02-19T03:09:49.688Z,85.30
2023-02-19T03:12:16.445Z,85.38
2023-02-19T03:14:48.442Z,85.34
2023-02-19T03:17:27.612Z,85.25
2023-02-19T03:19:56.222Z,84.89
2023-02-19T03:22:30.280Z,85.48
2023-02-19T03:25:21.982Z,85.69
2023-02-19T03:27:49.190Z,85.75
2023-02-19T03:30:21.113Z,84.88
2023-02-19T03:33:05.984Z,84.83
2023-02-19T03:35:33.326Z,85.27
2023-02-19T03:38:30.303Z,85.24
2023-02-19T03:41:02.950Z,86.08
2023-02-19T03:43:46.762Z,85.57
2023-02-19T03:46:26.318Z,85.04
2023-02-19T03:48:58.979Z,85.61
2023-02-19T03:51:39.184Z,86.13
2023-02-19T03:54:13.657Z,86.32
2023-02-19T03:56:52.298Z,85.07
2023-02-19T03:59:47.389Z,85.13
2023-02-19T04:02:16.499Z,86.03
2023-02-19T04:04:50.156Z,85.44
2023-02-19T04:07:16.891Z,85.31
2023-02-19T04:09:45.534Z,85.90
2023-02-19T04:12:12.229Z,85.37
2023-02-19T04:15:03.453Z,85.68
2023-02-19T04:17:36.058Z,86.11
2023-02-19T04:20:03.928Z,86.02
2023-02-19T04:22:30.673Z,85.62
2023-02-19T04:25:00.383Z,84.75
2023-02-19T04:27:27.071Z,83.44
2023-02-19T04:29:54.135Z,83.32
2023-02-19T04:32:20.860Z,82.78
2023-02-19T04:34:47.554Z,83.45
2023-02-19T04:37:14.293Z,83.47
2023-02-19T04:39:40.989Z,82.94
2023-02-19T04:42:07.836Z,83.19
2023-02-19T04:44:35.212Z,83.00
2023-02-19T04:47:02.094Z,82.46
2023-02-19T04:49:29.443Z,81.42
2023-02-19T04:51:56.141Z,81.45
2023-02-19T04:54:23.953Z,80.68
2023-02-19T04:56:50.666Z,81.04
2023-02-19T04:59:17.368Z,80.40
2023-02-19T05:01:45.169Z,80.89
2023-02-19T05:04:11.904Z,81.29
2023-02-19T05:06:41.660Z,79.10
2023-02-19T05:09:08.669Z,77.95
2023-02-19T05:11:35.517Z,78.04
2023-02-19T05:14:02.237Z,79.08
2023-02-19T05:16:28.924Z,78.41
2023-02-19T05:18:58.755Z,79.88
2023-02-19T05:21:28.439Z,80.28
2023-02-19T05:23:55.529Z,79.44
2023-02-19T05:26:22.798Z,78.50
2023-02-19T05:28:53.099Z,76.33
2023-02-19T05:31:20.113Z,76.51
2023-02-19T05:33:46.912Z,76.81
2023-02-19T05:36:13.782Z,78.78
2023-02-19T05:38:40.947Z,81.25
2023-02-19T05:41:18.292Z,81.38
2023-02-19T05:43:45.990Z,78.48
2023-02-19T05:46:13.945Z,78.93
2023-02-19T05:48:41.871Z,82.42
2023-02-19T05:51:13.320Z,83.17
2023-02-19T05:53:40.153Z,83.35
2023-02-19T05:56:35.894Z,83.42
2023-02-19T05:59:17.490Z,83.08
2023-02-19T06:01:44.517Z,81.81
2023-02-19T06:04:11.419Z,79.67
2023-02-19T06:06:38.217Z,82.41
2023-02-19T06:09:05.338Z,83.85
2023-02-19T06:11:32.142Z,83.22
2023-02-19T06:13:59.336Z,83.46
2023-02-19T06:16:27.613Z,84.23
2023-02-19T06:18:57.097Z,84.88
2023-02-19T06:21:28.910Z,83.94
2023-02-19T06:23:55.635Z,82.44
2023-02-19T06:26:23.787Z,82.13
2023-02-19T06:28:51.216Z,83.92
2023-02-19T06:31:18.838Z,82.21
2023-02-19T06:33:45.586Z,82.62
2023-02-19T06:36:16.181Z,83.61
2023-02-19T06:38:43.045Z,84.42
2023-02-19T06:41:10.526Z,83.20
2023-02-19T06:43:38.044Z,82.68
2023-02-19T06:46:06.255Z,81.49
2023-02-19T06:48:34.246Z,80.72
2023-02-19T06:51:01.981Z,80.11
2023-02-19T06:53:29.357Z,80.19
2023-02-19T06:56:00.251Z,79.28
2023-02-19T06:58:27.089Z,79.65
2023-02-19T07:00:53.814Z,79.06
2023-02-19T07:03:23.569Z,79.30
2023-02-19T07:05:53.011Z,80.14
2023-02-19T07:08:22.579Z,79.43
2023-02-19T07:10:56.102Z,79.71
2023-02-19T07:13:26.201Z,80.41
2023-02-19T07:15:57.833Z,80.80
2023-02-19T07:18:30.387Z,79.92
2023-02-19T07:21:12.368Z,79.76
2023-02-19T07:23:39.672Z,80.22
2023-02-19T07:26:12.622Z,79.44
2023-02-19T07:28:43.748Z,78.36
2023-02-19T07:31:11.661Z,75.41
2023-02-19T07:33:39.068Z,78.40
2023-02-19T07:36:28.809Z,77.52
2023-02-19T07:38:59.289Z,77.70
2023-02-19T07:41:26.328Z,77.81
2023-02-19T07:43:53.485Z,75.62
2023-02-19T07:46:20.616Z,73.78
2023-02-19T07:48:48.257Z,73.40
2023-02-19T07:51:16.223Z,73.38
2023-02-19T07:53:43.439Z,71.20
2023-02-19T07:56:12.385Z,70.79
2023-02-19T07:58:39.243Z,70.77
2023-02-19T08:01:10.295Z,67.85
2023-02-19T08:03:38.130Z,68.60
2023-02-19T08:06:05.247Z,74.36
2023-02-19T08:08:32.363Z,74.45
2023-02-19T08:11:03.529Z,72.78
2023-02-19T08:13:30.628Z,73.41
2023-02-19T08:16:36.711Z,73.20
2023-02-19T08:19:05.502Z,71.75
2023-02-19T08:21:34.302Z,69.95
2023-02-19T08:24:01.586Z,68.51
2023-02-19T08:26:28.427Z,67.51
2023-02-19T08:28:55.247Z,66.77
2023-02-19T08:31:24.992Z,66.63
2023-02-19T08:33:56.896Z,65.11
2023-02-19T08:36:24.133Z,63.26
2023-02-19T08:38:51.916Z,64.44
2023-02-19T08:41:19.006Z,64.49
2023-02-19T08:43:46.930Z,62.68
2023-02-19T08:46:13.673Z,63.97
2023-02-19T08:48:40.506Z,63.92
2023-02-19T08:51:10.440Z,64.88
2023-02-19T08:53:38.076Z,62.62
2023-02-19T08:56:12.834Z,62.86
2023-02-19T08:58:40.963Z,60.63
2023-02-19T09:01:12.090Z,60.73
2023-02-19T09:03:39.514Z,59.71
2023-02-19T09:06:16.357Z,61.15
2023-02-19T09:08:43.093Z,59.57
2023-02-19T09:11:10.388Z,64.16
2023-02-19T09:13:37.457Z,65.04
2023-02-19T09:16:05.612Z,63.69
2023-02-19T09:18:35.445Z,63.37
2023-02-19T09:21:06.317Z,64.35
2023-02-19T09:23:35.449Z,64.23
2023-02-19T09:26:02.417Z,63.09
2023-02-19T09:28:31.002Z,64.53
2023-02-19T09:30:57.839Z,65.25
2023-02-19T09:33:30.572Z,64.61
2023-02-19T09:36:00.116Z,62.72
2023-02-19T09:38:27.239Z,60.60
2023-02-19T09:40:57.532Z,60.39
2023-02-19T09:43:24.638Z,61.65
2023-02-19T09:46:04.798Z,59.58
2023-02-19T09:48:32.627Z,59.07
2023-02-19T09:50:59.770Z,58.12
2023-02-19T09:53:30.387Z,58.95
2023-02-19T09:55:57.098Z,59.64
2023-02-19T09:58:35.373Z,60.87
2023-02-19T10:01:06.282Z,59.66
2023-02-19T10:03:38.723Z,59.12
2023-02-19T10:06:09.429Z,58.14
2023-02-19T10:08:39.429Z,57.74
2023-02-19T10:11:06.154Z,55.50
2023-02-19T10:13:37.705Z,56.39
2023-02-19T10:16:05.960Z,55.65
2023-02-19T10:18:39.803Z,55.54
2023-02-19T10:21:07.581Z,55.92
2023-02-19T10:23:34.713Z,54.45
2023-02-19T10:26:02.152Z,52.72
2023-02-19T10:28:30.310Z,55.32
2023-02-19T10:30:59.449Z,54.75
2023-02-19T10:33:26.802Z,53.94
2023-02-19T10:36:05.505Z,56.16
2023-02-19T10:38:39.317Z,56.75
2023-02-19T10:41:19.579Z,56.43
2023-02-19T10:44:00.374Z,55.61
2023-02-19T10:46:31.937Z,57.36
2023-02-19T10:49:02.100Z,55.84
2023-02-19T10:51:32.248Z,56.26
2023-02-19T10:54:26.814Z,55.37
2023-02-19T10:56:53.611Z,53.54
2023-02-19T10:59:32.194Z,53.91
2023-02-19T11:02:03.494Z,53.35
2023-02-19T11:04:31.400Z,52.92
2023-02-19T11:07:10.489Z,54.83
2023-02-19T11:09:44.500Z,54.98
2023-02-19T11:12:13.259Z,54.74
2023-02-19T11:14:44.735Z,53.00
2023-02-19T11:17:49.848Z,52.86
2023-02-19T11:20:25.174Z,56.37
2023-02-19T11:22:52.352Z,56.26
2023-02-19T11:25:27.637Z,55.84
2023-02-19T11:28:17.045Z,54.29
2023-02-19T11:30:44.412Z,52.75
2023-02-19T11:33:43.994Z,53.87
2023-02-19T11:36:30.409Z,51.98
2023-02-19T11:38:58.786Z,51.35
2023-02-19T11:42:03.753Z,51.48
2023-02-19T11:44:49.353Z,52.81
2023-02-19T11:47:41.682Z,53.65
2023-02-19T11:50:49.921Z,52.22
2023-02-19T11:53:29.285Z,53.37
2023-02-19T11:56:23.817Z,51.36
2023-02-19T11:59:23.810Z,50.75
2023-02-19T12:02:24.594Z,50.54
2023-02-19T12:05:21.319Z,50.49
2023-02-19T12:08:09.317Z,51.40
2023-02-19T12:11:09.403Z,50.49
2023-02-19T12:13:57.920Z,50.31
2023-02-19T12:16:30.615Z,51.31
2023-02-19T12:19:00.340Z,52.74
2023-02-19T12:21:32.912Z,51.01
2023-02-19T12:24:32.565Z,52.28
2023-02-19T12:27:26.625Z,51.64
2023-02-19T12:30:09.223Z,51.03
2023-02-19T12:33:00.289Z,48.85
2023-02-19T12:35:52.582Z,49.17
2023-02-19T12:38:27.459Z,50.11
2023-02-19T12:41:07.190Z,50.97
2023-02-19T12:43:37.571Z,49.97
2023-02-19T12:46:12.806Z,48.84
2023-02-19T12:49:19.169Z,48.01
2023-02-19T12:51:52.828Z,48.42
2023-02-19T12:54:48.325Z,50.18
2023-02-19T12:57:24.273Z,48.81
2023-02-19T13:00:36.938Z,47.04
2023-02-19T13:03:25.735Z,48.06
2023-02-19T13:06:19.862Z,48.64
2023-02-19T13:09:06.341Z,48.60
2023-02-19T13:11:45.356Z,46.93
2023-02-19T13:14:42.109Z,49.50
2023-02-19T13:17:33.978Z,47.07
2023-02-19T13:20:14.385Z,47.31
2023-02-19T13:23:02.139Z,49.36
2023-02-19T13:25:59.624Z,47.49
2023-02-19T13:29:10.845Z,47.98
2023-02-19T13:32:20.767Z,47.35
2023-02-19T13:35:01.763Z,46.80
2023-02-19T13:37:29.932Z,46.69
2023-02-19T13:39:56.637Z,45.86
2023-02-19T13:42:34.536Z,44.18
2023-02-19T13:45:05.236Z,44.14
2023-02-19T13:48:09.510Z,45.01
2023-02-19T13:50:36.730Z,44.76
2023-02-19T13:53:42.434Z,43.34
2023-02-19T13:56:31.890Z,44.00
2023-02-19T13:59:15.529Z,43.20
2023-02-19T14:02:12.781Z,43.23
2023-02-19T14:04:47.604Z,43.48
2023-02-19T14:07:14.716Z,43.31
2023-02-19T14:09:41.305Z,44.93
2023-02-19T14:12:07.913Z,43.52
2023-02-19T14:14:53.536Z,43.39
2023-02-19T14:17:33.628Z,44.54
2023-02-19T14:20:09.890Z,42.26
2023-02-19T14:22:49.064Z,45.33
2023-02-19T14:25:36.828Z,46.30
2023-02-19T14:28:18.794Z,47.23
2023-02-19T14:31:02.893Z,46.42
2023-02-19T14:33:43.165Z,43.93
2023-02-19T14:36:33.369Z,43.27
2023-02-19T14:39:04.697Z,45.36
2023-02-19T14:41:33.159Z,45.64
2023-02-19T14:44:00.297Z,46.22
2023-02-19T14:46:37.865Z,46.90
2023-02-19T14:49:24.367Z,47.54
2023-02-19T14:52:01.337Z,45.73
2023-02-19T14:54:56.995Z,46.05
2023-02-19T14:57:26.666Z,45.69
2023-02-19T14:59:56.594Z,46.77
2023-02-19T15:02:27.449Z,45.77
2023-02-19T15:05:02.102Z,45.72
2023-02-19T15:07:31.601Z,45.49
2023-02-19T15:10:05.667Z,49.91
2023-02-19T15:12:59.338Z,48.86
2023-02-19T15:15:28.023Z,46.31
2023-02-19T15:17:55.402Z,45.31
2023-02-19T15:20:45.337Z,46.49
2023-02-19T15:23:17.049Z,45.94
2023-02-19T15:25:45.450Z,47.75
2023-02-19T15:28:39.424Z,45.76
2023-02-19T15:31:06.644Z,46.31
2023-02-19T15:33:33.553Z,47.83
2023-02-19T15:36:03.106Z,48.81
2023-02-19T15:38:30.854Z,50.61
2023-02-19T15:40:57.901Z,50.86
2023-02-19T15:43:32.653Z,51.02
2023-02-19T15:46:16.365Z,50.89
2023-02-19T15:48:56.543Z,51.61
2023-02-19T15:52:00.474Z,52.19
2023-02-19T15:54:33.311Z,53.15
2023-02-19T15:57:03.378Z,53.65
2023-02-19T15:59:38.546Z,53.94
2023-02-19T16:02:06.221Z,53.96
2023-02-19T16:04:33.958Z,53.82
2023-02-19T16:07:01.872Z,54.17
2023-02-19T16:09:38.557Z,54.37
2023-02-19T16:12:25.584Z,55.24
2023-02-19T16:14:52.321Z,56.57
2023-02-19T16:17:21.857Z,56.66
2023-02-19T16:19:54.688Z,57.97
2023-02-19T16:22:23.720Z,57.88
2023-02-19T16:24:55.549Z,57.87
2023-02-19T16:27:36.166Z,57.96
2023-02-19T16:30:25.777Z,59.01
2023-02-19T16:33:29.590Z,59.10
2023-02-19T16:36:16.156Z,59.55
2023-02-19T16:39:06.836Z,59.94
2023-02-19T16:41:34.496Z,60.18
2023-02-19T16:44:01.218Z,61.18
2023-02-19T16:46:27.897Z,62.05
2023-02-19T16:48:57.254Z,62.38
2023-02-19T16:51:25.328Z,62.71
2023-02-19T16:53:52.466Z,62.96
2023-02-19T16:56:19.954Z,63.33
2023-02-19T16:58:46.791Z,63.34
2023-02-19T17:01:13.915Z,63.96
2023-02-19T17:03:41.155Z,63.93
2023-02-19T17:06:07.860Z,64.31
2023-02-19T17:08:52.130Z,64.37
2023-02-19T17:11:18.923Z,64.70
2023-02-19T17:13:46.421Z,65.37
2023-02-19T17:16:20.885Z,65.40
2023-02-19T17:18:47.651Z,65.69
2023-02-19T17:21:28.905Z,65.17
2023-02-19T17:23:56.145Z,65.64
2023-02-19T17:26:27.725Z,66.02
2023-02-19T17:29:17.786Z,65.79
2023-02-19T17:31:44.918Z,65.84
2023-02-19T17:34:12.607Z,65.89
2023-02-19T17:36:43.496Z,66.07
2023-02-19T17:39:12.942Z,66.55
2023-02-19T17:41:40.426Z,66.11
2023-02-19T17:44:09.042Z,66.52
2023-02-19T17:46:35.785Z,66.38
2023-02-19T17:49:02.533Z,66.64
2023-02-19T17:51:29.592Z,66.66
2023-02-19T17:53:57.016Z,66.22
2023-02-19T17:56:25.053Z,66.66
2023-02-19T17:58:52.068Z,66.64
2023-02-19T18:01:18.848Z,67.12
2023-02-19T18:03:46.365Z,67.12
2023-02-19T18:06:15.962Z,67.30
2023-02-19T18:08:50.377Z,67.06
2023-02-19T18:11:20.087Z,67.36
2023-02-19T18:13:50.727Z,67.24
2023-02-19T18:16:17.923Z,67.10
2023-02-19T18:18:47.772Z,67.47
2023-02-19T18:21:14.952Z,67.65
2023-02-19T18:23:42.552Z,67.62
2023-02-19T18:26:10.114Z,67.91
2023-02-19T18:28:41.998Z,68.37
2023-02-19T18:31:08.818Z,68.01
2023-02-19T18:33:35.958Z,68.24
2023-02-19T18:36:03.168Z,68.26
2023-02-19T18:38:32.694Z,68.51
2023-02-19T18:41:02.258Z,67.84
2023-02-19T18:43:29.423Z,67.62
2023-02-19T18:45:59.890Z,67.52
2023-02-19T18:48:27.089Z,67.41
2023-02-19T18:50:55.213Z,67.34
2023-02-19T18:53:22.616Z,67.08
2023-02-19T18:55:49.894Z,66.85
2023-02-19T18:58:17.410Z,67.39
2023-02-19T19:00:44.269Z,67.22
2023-02-19T19:03:11.018Z,67.07
2023-02-19T19:05:41.239Z,66.97
2023-02-19T19:08:07.985Z,67.23
2023-02-19T19:10:35.117Z,67.17
2023-02-19T19:13:03.626Z,67.08
2023-02-19T19:15:30.772Z,66.76
2023-02-19T19:18:02.736Z,66.66
2023-02-19T19:20:30.905Z,66.63
2023-02-19T19:22:58.001Z,66.62
2023-02-19T19:25:28.242Z,66.84
2023-02-19T19:27:55.760Z,67.14
2023-02-19T19:30:22.545Z,68.02
2023-02-19T19:32:49.702Z,68.52
2023-02-19T19:35:19.906Z,68.55
2023-02-19T19:37:46.595Z,68.72
2023-02-19T19:40:15.689Z,68.77
2023-02-19T19:42:44.503Z,69.26
2023-02-19T19:45:12.863Z,69.29
2023-02-19T19:47:39.760Z,69.66
2023-02-19T19:50:07.794Z,69.51
2023-02-19T19:52:37.361Z,69.59
2023-02-19T19:55:04.446Z,69.88
2023-02-19T19:57:32.545Z,69.78
2023-02-19T20:00:02.168Z,70.10
2023-02-19T20:02:29.277Z,70.61
2023-02-19T20:04:56.156Z,70.66
2023-02-19T20:07:22.930Z,70.36
2023-02-19T20:09:49.707Z,70.71
2023-02-19T20:12:17.088Z,71.12
2023-02-19T20:14:48.307Z,70.98
2023-02-19T20:17:15.107Z,70.84
2023-02-19T20:19:42.206Z,71.36
2023-02-19T20:22:11.654Z,71.59
2023-02-19T20:24:39.684Z,71.60
2023-02-19T20:27:06.367Z,70.95
2023-02-19T20:29:33.873Z,70.76
2023-02-19T20:32:00.746Z,70.26
2023-02-19T20:34:28.051Z,70.25
2023-02-19T20:36:54.880Z,70.07
2023-02-19T20:39:23.101Z,70.00
2023-02-19T20:41:50.931Z,70.04
2023-02-19T20:44:18.195Z,70.02
2023-02-19T20:46:45.930Z,70.07
2023-02-19T20:49:13.816Z,70.58
2023-02-19T20:51:44.865Z,70.62
2023-02-19T20:54:11.611Z,70.49
2023-02-19T20:56:43.295Z,70.57
2023-02-19T20:59:10.388Z,70.24
2023-02-19T21:01:38.779Z,69.44
2023-02-19T21:04:05.618Z,69.86
2023-02-19T21:06:33.615Z,69.81
2023-02-19T21:09:00.482Z,69.92
2023-02-19T21:11:27.302Z,69.24
2023-02-19T21:13:54.736Z,69.50
2023-02-19T21:16:21.912Z,68.93
2023-02-19T21:18:49.713Z,68.54
2023-02-19T21:21:20.313Z,69.20
2023-02-19T21:23:48.381Z,69.61
2023-02-19T21:26:15.086Z,69.92
2023-02-19T21:28:42.468Z,69.99
2023-02-19T21:31:09.753Z,70.36
2023-02-19T21:33:36.479Z,70.34
2023-02-19T21:36:04.212Z,70.63
2023-02-19T21:38:33.716Z,70.91
2023-02-19T21:41:07.173Z,70.93
2023-02-19T21:43:33.851Z,70.80
2023-02-19T21:46:03.780Z,71.03
2023-02-19T21:48:30.821Z,71.15
2023-02-19T21:50:57.716Z,70.69
2023-02-19T21:53:24.392Z,70.21
2023-02-19T21:55:58.731Z,70.33
2023-02-19T21:58:26.568Z,70.67
2023-02-19T22:00:53.419Z,70.29
2023-02-19T22:03:20.466Z,70.78
2023-02-19T22:05:47.417Z,70.21
2023-02-19T22:08:14.348Z,70.07
2023-02-19T22:10:41.081Z,69.83
2023-02-19T22:13:08.231Z,69.21
2023-02-19T22:15:36.014Z,69.24
2023-02-19T22:18:02.697Z,69.09
2023-02-19T22:20:29.599Z,69.08
2023-02-19T22:22:57.583Z,68.80
2023-02-19T22:25:24.298Z,68.86
2023-02-19T22:27:51.690Z,68.89
2023-02-19T22:30:18.610Z,68.58
2023-02-19T22:32:46.742Z,68.20
2023-02-19T22:35:15.762Z,68.19
2023-02-19T22:37:42.885Z,67.99
2023-02-19T22:40:22.578Z,67.97
2023-02-19T22:42:49.251Z,67.31
2023-02-19T22:45:16.100Z,67.34
2023-02-19T22:47:42.846Z,67.02
2023-02-19T22:50:19.677Z,66.97
2023-02-19T22:52:46.625Z,67.24
2023-02-19T22:55:13.386Z,67.31
2023-02-19T22:57:40.110Z,67.70
2023-02-19T23:00:15.283Z,68.09
2023-02-19T23:02:41.995Z,67.83
2023-02-19T23:05:09.037Z,68.19
2023-02-19T23:07:36.928Z,68.20
2023-02-19T23:10:05.823Z,67.62
2023-02-19T23:12:36.180Z,67.77
2023-02-19T23:15:05.842Z,66.99
2023-02-19T23:17:33.834Z,66.92
2023-02-19T23:20:00.908Z,66.97
2023-02-19T23:22:28.576Z,66.65
2023-02-19T23:24:55.949Z,66.67
2023-02-19T23:27:22.727Z,66.56
2023-02-19T23:29:49.475Z,67.13
2023-02-19T23:32:16.159Z,67.19
2023-02-19T23:34:42.858Z,67.01
2023-02-19T23:37:10.013Z,67.39
2023-02-19T23:39:37.226Z,67.75
2023-02-19T23:42:05.185Z,67.67
2023-02-19T23:44:33.613Z,67.46
2023-02-19T23:47:00.341Z,67.69
2023-02-19T23:49:28.509Z,67.87
2023-02-19T23:51:55.549Z,67.43
2023-02-19T23:54:24.991Z,67.34
2023-02-19T23:56:52.938Z,67.57
2023-02-19T23:59:19.664Z,67.07
